KPIT

Pittsburgh International Airport

Pittsburgh, Pennsylvania, USA
METAR KPIT 220151Z 15003KT 10SM BKN200 23/16 A3007 RMK AO2 SLP183 T02280156
Observed Flight Rules
May-22 @ 01:51 UTC (47 minutes ago) Visual Flight Rules
Wind Visibility Clouds
150° at 3 knots 10 miles
  • Broken at 20,000' AGL
Temperatures Readings
Current 23°C / 73°F
Dewpoint 16°C / 61°F
Humidity 65%
Altimeter 30.07" Hg
Pressure 1018.3 hPa
Elevation 357
METAR KPIT 220151Z 15003KT 10SM BKN200 23/16 A3007 RMK AO2 SLP183 T02280156
Observed Flight Rules
May-22 @ 01:51 UTC
(47 minutes ago)
VFR
Wind Visibility
150° at 3 knots 10 miles
Clouds
  • Broken at 20,000' AGL
Temperature Dewpoint
23°C / 73°F 16°C / 61°F
Humidity Altimeter Pressure
65% 30.07" Hg 1018.3 hPa